Time;durP1;ratioP1;P1;durP2;ratioP2;P2;SDS_P1;SDS_P2;PMS_P1;PMS_P2;Temp;Humidity;BMP_temperature;BMP_pressure;BME280_temperature;BME280_humidity;BME280_pressure;Samples;Min_cycle;Max_cycle;Signal;HPM_P1;HPM_P2
2021/09/07 00:02:09;;;;;;;16.63;14.93;;;;;;;17.88;65.95;102375.28;6168940;28;20230;-54
2021/09/07 00:05:30;;;;;;;17.67;15.63;;;;;;;18.07;65.19;102367.13;6189180;28;20242;-52
2021/09/07 00:08:51;;;;;;;16.35;14.73;;;;;;;17.92;66.17;102362.94;6184369;28;20226;-52
2021/09/07 00:12:15;;;;;;;19.27;17.23;;;;;;;17.91;65.77;102361.19;6180320;28;20523;-51
2021/09/07 00:15:37;;;;;;;18.80;16.80;;;;;;;18.02;65.97;102359.25;6197540;28;20233;-48
2021/09/07 00:18:59;;;;;;;18.75;16.75;;;;;;;18.07;65.63;102362.72;6187066;28;20225;-52
2021/09/07 00:22:19;;;;;;;19.35;16.85;;;;;;;18.00;65.98;102365.47;6176730;28;20237;-52
2021/09/07 00:25:41;;;;;;;18.10;15.07;;;;;;;17.91;66.16;102355.91;6187393;28;20237;-50
2021/09/07 00:29:01;;;;;;;18.90;16.95;;;;;;;18.02;65.91;102363.66;6182426;28;20233;-51
2021/09/07 00:32:24;;;;;;;19.05;16.85;;;;;;;17.96;66.24;102353.22;6184106;28;20242;-54
2021/09/07 00:35:45;;;;;;;20.67;17.70;;;;;;;18.04;65.82;102356.59;6184847;28;20225;-49
2021/09/07 00:39:06;;;;;;;17.20;15.50;;;;;;;17.97;66.21;102354.97;6173185;28;20245;-50
2021/09/07 00:42:27;;;;;;;18.67;16.75;;;;;;;17.86;66.96;102353.38;6181701;28;20236;-47
2021/09/07 00:45:48;;;;;;;17.50;15.77;;;;;;;17.90;66.70;102355.06;6188135;28;20539;-49
2021/09/07 00:49:12;;;;;;;19.00;17.20;;;;;;;17.94;66.72;102349.75;6177049;28;20631;-52
2021/09/07 00:52:35;;;;;;;20.33;17.20;;;;;;;17.77;67.52;102348.19;6179298;28;20228;-54
2021/09/07 00:55:57;;;;;;;18.77;16.85;;;;;;;17.90;66.68;102347.16;6188761;28;20304;-50
2021/09/07 00:59:21;;;;;;;18.85;16.83;;;;;;;17.96;66.86;102342.69;6181929;28;20238;-49
2021/09/07 01:02:42;;;;;;;20.20;18.00;;;;;;;18.02;66.28;102337.31;6179099;28;20225;-52
2021/09/07 01:06:05;;;;;;;22.58;17.52;;;;;;;17.97;66.48;102337.41;6189518;28;20237;-50
2021/09/07 01:09:26;;;;;;;19.63;16.83;;;;;;;17.79;66.95;102335.88;6176062;28;20244;-51
2021/09/07 01:12:48;;;;;;;16.95;15.20;;;;;;;17.95;66.71;102340.94;6170908;28;20231;-51
2021/09/07 01:16:09;;;;;;;18.65;16.40;;;;;;;17.85;66.80;102351.59;6189473;28;20249;-52
2021/09/07 01:19:31;;;;;;;17.17;15.40;;;;;;;17.78;66.96;102347.31;6172193;28;20374;-52
2021/09/07 01:22:54;;;;;;;17.33;15.63;;;;;;;17.88;66.59;102348.94;6174707;28;20230;-51
2021/09/07 01:26:19;;;;;;;17.45;15.70;;;;;;;17.92;66.41;102348.91;6187908;28;20233;-52
2021/09/07 01:29:42;;;;;;;17.75;15.43;;;;;;;17.72;67.17;102350.03;6178900;28;20237;-48
2021/09/07 01:33:03;;;;;;;19.35;17.38;;;;;;;17.70;66.87;102343.94;6176665;28;20229;-49
2021/09/07 01:36:24;;;;;;;15.90;14.30;;;;;;;17.78;66.72;102328.88;6181446;28;20240;-53
2021/09/07 01:39:45;;;;;;;17.00;15.32;;;;;;;17.62;67.38;102341.41;6164328;28;20238;-50
2021/09/07 01:43:14;;;;;;;16.38;14.63;;;;;;;17.86;66.26;102339.31;6169183;28;20233;-52
2021/09/07 01:46:35;;;;;;;16.50;15.00;;;;;;;17.76;66.28;102330.66;6181163;28;20686;-53
2021/09/07 01:49:56;;;;;;;16.25;14.65;;;;;;;17.70;66.95;102336.88;6177449;28;20237;-51
2021/09/07 01:53:17;;;;;;;18.30;15.90;;;;;;;17.84;66.07;102336.72;6172065;28;20245;-55
2021/09/07 01:56:40;;;;;;;19.07;15.73;;;;;;;17.79;66.18;102345.53;6188234;28;20218;-53
2021/09/07 02:00:03;;;;;;;16.30;14.67;;;;;;;17.62;67.15;102358.94;6173660;28;20230;-52
2021/09/07 02:03:34;;;;;;;16.52;14.82;;;;;;;17.81;65.92;102344.63;6167807;28;20557;-50
2021/09/07 02:06:56;;;;;;;16.50;14.40;;;;;;;17.69;66.78;102355.34;6185062;28;20233;-52
2021/09/07 02:10:20;;;;;;;16.05;14.32;;;;;;;17.60;66.90;102350.19;6197149;28;20235;-46
2021/09/07 02:13:40;;;;;;;16.07;14.57;;;;;;;17.45;67.30;102349.53;6166629;28;20230;-52
2021/09/07 02:17:03;;;;;;;20.33;15.97;;;;;;;17.57;66.62;102351.13;6193688;28;20249;-51
2021/09/07 02:20:25;;;;;;;19.33;16.97;;;;;;;17.49;66.77;102347.72;6189407;28;20317;-52
2021/09/07 02:23:46;;;;;;;17.60;15.93;;;;;;;17.37;67.20;102354.03;6178881;28;20234;-51
2021/09/07 02:27:08;;;;;;;17.70;15.93;;;;;;;17.26;67.67;102355.94;6184900;28;20241;-50
2021/09/07 02:30:28;;;;;;;18.10;16.20;;;;;;;17.20;68.05;102361.28;6191443;28;20237;-49
2021/09/07 02:33:51;;;;;;;18.27;15.68;;;;;;;17.03;68.53;102357.06;6180188;28;20605;-49
2021/09/07 02:37:13;;;;;;;19.60;17.83;;;;;;;17.11;68.44;102347.31;6181223;28;20233;-50
2021/09/07 02:40:35;;;;;;;17.67;15.87;;;;;;;16.84;69.40;102348.50;6198253;28;20250;-49
2021/09/07 02:43:56;;;;;;;18.50;16.60;;;;;;;17.19;67.95;102339.31;6183774;28;20225;-48
2021/09/07 02:47:17;;;;;;;20.27;18.13;;;;;;;17.19;67.92;102344.59;6190194;28;20230;-47
2021/09/07 02:50:40;;;;;;;20.10;18.10;;;;;;;17.00;68.71;102328.16;6197623;28;20237;-53
2021/09/07 02:54:01;;;;;;;19.27;17.17;;;;;;;16.91;69.29;102331.78;6182849;28;20571;-50
2021/09/07 02:57:21;;;;;;;19.10;17.30;;;;;;;17.11;68.69;102331.53;6178992;28;20321;-46
2021/09/07 03:00:43;;;;;;;20.47;18.47;;;;;;;17.07;68.47;102328.97;6195312;28;20236;-50
2021/09/07 03:04:04;;;;;;;20.60;17.07;;;;;;;17.18;67.95;102321.81;6183128;28;20817;-53
2021/09/07 03:07:27;;;;;;;19.27;17.23;;;;;;;16.83;69.98;102330.13;6183136;28;20234;-51
2021/09/07 03:10:49;;;;;;;25.03;22.57;;;;;;;16.95;69.33;102335.25;6194737;28;20265;-48
2021/09/07 03:14:10;;;;;;;27.07;24.27;;;;;;;16.87;69.47;102337.97;6185558;28;20238;-49
2021/09/07 03:17:32;;;;;;;29.47;26.53;;;;;;;16.68;70.16;102342.50;6181277;28;20261;-53
2021/09/07 03:20:53;;;;;;;21.60;19.70;;;;;;;16.78;69.76;102348.53;6184902;28;20239;-50
2021/09/07 03:24:16;;;;;;;25.05;22.50;;;;;;;16.73;69.68;102345.09;6178564;28;20305;-53
2021/09/07 03:27:38;;;;;;;26.10;22.83;;;;;;;16.73;69.81;102343.34;6182874;28;20234;-50
2021/09/07 03:30:59;;;;;;;25.37;21.90;;;;;;;16.64;70.24;102348.69;6190153;28;20237;-48
2021/09/07 03:34:21;;;;;;;22.43;20.23;;;;;;;16.74;69.33;102352.09;6178785;28;20233;-48
2021/09/07 03:37:43;;;;;;;23.67;21.27;;;;;;;16.56;69.88;102340.00;6180329;28;20222;-52
2021/09/07 03:41:05;;;;;;;21.80;19.53;;;;;;;16.48;70.01;102333.97;6191653;28;20335;-49
2021/09/07 03:44:26;;;;;;;23.57;21.17;;;;;;;16.48;70.25;102334.81;6182573;28;20225;-50
2021/09/07 03:47:48;;;;;;;22.17;20.03;;;;;;;16.32;70.74;102334.09;6188505;28;20229;-51
2021/09/07 03:51:09;;;;;;;25.37;21.33;;;;;;;16.32;70.15;102335.84;6184858;28;20277;-49
2021/09/07 03:54:30;;;;;;;24.73;22.13;;;;;;;16.30;70.40;102341.13;6164491;28;20324;-47
2021/09/07 03:57:53;;;;;;;22.10;19.93;;;;;;;16.28;70.69;102348.13;6177301;28;20233;-48
2021/09/07 04:01:14;;;;;;;24.23;21.70;;;;;;;16.26;70.54;102343.78;6192159;28;20328;-52
2021/09/07 04:04:36;;;;;;;22.43;19.97;;;;;;;16.26;70.30;102343.78;6178751;28;20230;-49
2021/09/07 04:07:57;;;;;;;23.10;20.83;;;;;;;16.32;70.16;102360.38;6182399;28;20237;-48
2021/09/07 04:11:18;;;;;;;23.93;21.43;;;;;;;16.26;70.29;102368.28;6190075;28;20237;-49
2021/09/07 04:14:41;;;;;;;23.33;20.90;;;;;;;16.26;70.22;102370.94;6178267;28;20226;-48
2021/09/07 04:18:03;;;;;;;25.00;22.43;;;;;;;16.12;70.75;102370.19;6180886;28;20259;-50
2021/09/07 04:21:25;;;;;;;23.67;21.50;;;;;;;16.22;70.43;102369.22;6190706;28;20230;-51
2021/09/07 04:24:46;;;;;;;21.23;18.93;;;;;;;16.22;70.55;102369.22;6182045;28;20229;-49
2021/09/07 04:28:09;;;;;;;26.23;22.50;;;;;;;16.28;70.36;102366.53;6182924;28;20237;-50
2021/09/07 04:31:32;;;;;;;25.07;22.50;;;;;;;16.27;70.11;102372.69;6187076;28;20253;-49
2021/09/07 04:34:53;;;;;;;21.43;19.07;;;;;;;16.37;69.67;102370.00;6179681;28;20902;-49
2021/09/07 04:38:14;;;;;;;26.30;22.60;;;;;;;16.29;69.95;102368.28;6181305;28;20237;-50
2021/09/07 04:41:35;;;;;;;25.47;22.83;;;;;;;16.20;70.44;102376.25;6190237;28;20304;-50
2021/09/07 04:44:57;;;;;;;26.17;23.57;;;;;;;16.26;70.51;102380.56;6173478;28;20226;-48
2021/09/07 04:48:20;;;;;;;27.37;24.57;;;;;;;16.13;71.10;102382.44;6176359;28;20698;-46
2021/09/07 04:51:41;;;;;;;24.10;21.77;;;;;;;16.34;70.46;102377.03;6187404;28;20238;-50
2021/09/07 04:55:02;;;;;;;26.17;23.43;;;;;;;16.27;70.61;102383.19;6172778;28;20242;-51
2021/09/07 04:58:23;;;;;;;24.17;21.87;;;;;;;16.24;70.75;102384.97;6177067;28;20234;-52
2021/09/07 05:01:44;;;;;;;23.60;21.10;;;;;;;16.37;69.97;102384.00;6184453;28;20225;-47
2021/09/07 05:05:08;;;;;;;23.87;21.57;;;;;;;16.46;69.61;102383.03;6184730;28;20253;-51
2021/09/07 05:08:29;;;;;;;25.27;22.77;;;;;;;16.49;69.75;102389.13;6175745;28;20230;-52
2021/09/07 05:11:50;;;;;;;24.73;22.03;;;;;;;16.36;70.56;102391.88;6188504;28;20234;-50
2021/09/07 05:15:12;;;;;;;23.57;21.47;;;;;;;16.31;70.51;102394.56;6188032;28;20222;-52
2021/09/07 05:18:33;;;;;;;27.60;24.77;;;;;;;16.42;70.39;102386.56;6175060;28;20968;-53
2021/09/07 05:21:55;;;;;;;24.53;22.13;;;;;;;16.37;70.38;102384.00;6190142;28;20219;-49
2021/09/07 05:25:17;;;;;;;26.33;23.70;;;;;;;16.38;70.35;102390.13;6187012;28;20726;-49
2021/09/07 05:28:38;;;;;;;25.53;22.23;;;;;;;16.45;70.29;102381.31;6181983;28;20524;-54
2021/09/07 05:31:59;;;;;;;23.37;20.93;;;;;;;16.56;69.72;102394.38;6173128;28;20222;-52
2021/09/07 05:35:20;;;;;;;26.97;22.67;;;;;;;16.56;70.00;102399.63;6191866;28;21423;-49
2021/09/07 05:38:42;;;;;;;25.93;23.47;;;;;;;16.61;69.86;102403.06;6179518;28;20956;-47
2021/09/07 05:42:03;;;;;;;24.83;22.23;;;;;;;16.72;69.73;102396.81;6169797;28;20229;-46
2021/09/07 05:45:25;;;;;;;25.47;23.03;;;;;;;16.90;68.99;102390.56;6181440;28;20230;-49
2021/09/07 05:48:46;;;;;;;26.43;21.27;;;;;;;17.00;68.30;102393.97;6171398;28;20332;-51
2021/09/07 05:52:07;;;;;;;25.43;22.73;;;;;;;16.84;69.09;102389.72;6168725;28;20253;-49
2021/09/07 05:55:29;;;;;;;22.57;20.30;;;;;;;16.90;68.91;102395.81;6180906;28;20234;-53
2021/09/07 05:58:50;;;;;;;21.03;18.83;;;;;;;17.07;68.31;102398.25;6168262;28;20248;-53
2021/09/07 06:02:11;;;;;;;24.60;20.10;;;;;;;16.96;68.41;102405.38;6166829;28;20328;-51
2021/09/07 06:05:32;;;;;;;20.87;18.77;;;;;;;16.97;68.55;102393.13;6180255;28;20241;-54
2021/09/07 06:08:53;;;;;;;19.47;17.17;;;;;;;17.40;67.13;102401.38;6165747;28;20237;-51
2021/09/07 06:12:15;;;;;;;18.23;16.33;;;;;;;17.43;66.49;102401.34;6162059;28;20271;-49
2021/09/07 06:15:36;;;;;;;18.15;16.30;;;;;;;17.42;66.77;102404.88;6173678;28;20520;-49
2021/09/07 06:18:57;;;;;;;18.40;16.57;;;;;;;17.68;66.13;102399.28;6158132;28;20242;-53
2021/09/07 06:22:18;;;;;;;17.00;15.40;;;;;;;17.86;65.05;102395.53;6160784;28;20236;-50
2021/09/07 06:25:40;;;;;;;16.60;14.83;;;;;;;18.14;64.27;102399.50;6187852;28;20552;-52
2021/09/07 06:29:02;;;;;;;16.50;14.18;;;;;;;18.12;64.29;102402.16;6161657;28;20245;-48
2021/09/07 06:32:23;;;;;;;17.80;12.97;;;;;;;18.16;63.92;102405.63;6174803;28;20371;-53
2021/09/07 06:35:44;;;;;;;15.13;13.00;;;;;;;18.19;63.93;102406.47;6184628;28;20229;-49
2021/09/07 06:39:05;;;;;;;16.00;14.38;;;;;;;18.27;63.57;102404.56;6170848;28;20324;-52
2021/09/07 06:42:28;;;;;;;15.10;13.57;;;;;;;18.27;63.48;102407.19;6171860;28;20706;-52
2021/09/07 06:45:50;;;;;;;16.63;14.20;;;;;;;18.21;63.68;102406.44;6178353;28;20238;-51
2021/09/07 06:49:11;;;;;;;14.13;12.50;;;;;;;18.41;63.39;102408.75;6170864;28;20241;-50
2021/09/07 06:52:33;;;;;;;13.60;12.20;;;;;;;18.30;63.14;102408.94;6169076;28;20281;-53
2021/09/07 06:55:54;;;;;;;15.05;11.75;;;;;;;18.48;62.82;102405.97;6184095;28;20230;-49
2021/09/07 06:59:15;;;;;;;13.65;11.77;;;;;;;18.59;62.27;102408.44;6174178;28;20233;-47
2021/09/07 07:02:40;;;;;;;14.30;12.05;;;;;;;18.87;61.96;102405.34;6171584;28;20235;-49
2021/09/07 07:06:01;;;;;;;12.88;11.52;;;;;;;19.07;nan;102413.72;6190365;28;20230;-52
2021/09/07 07:09:22;;;;;;;12.27;11.07;;;;;;;19.17;60.39;102421.47;6178109;28;20283;-52
2021/09/07 07:12:43;;;;;;;14.73;10.07;;;;;;;19.13;59.63;102420.66;6177156;28;20234;-51
2021/09/07 07:16:05;;;;;;;11.82;9.82;;;;;;;19.30;59.66;102424.75;6185964;28;20229;-49
2021/09/07 07:19:27;;;;;;;10.95;9.88;;;;;;;19.35;59.94;102420.22;6175130;28;20261;-61
2021/09/07 07:22:48;;;;;;;10.15;9.18;;;;;;;19.42;59.77;102430.66;6175470;28;20612;-61
2021/09/07 07:26:09;;;;;;;10.43;9.50;;;;;;;19.24;60.07;102417.81;6172449;28;20600;-60
2021/09/07 07:29:30;;;;;;;12.95;8.75;;;;;;;19.68;59.17;102430.13;6166865;28;20515;-60
2021/09/07 07:32:51;;;;;;;9.07;8.18;;;;;;;19.77;58.31;102434.34;6179758;28;20253;-61
2021/09/07 07:36:13;;;;;;;10.65;8.60;;;;;;;19.95;57.41;102438.38;6184696;28;20261;-61
2021/09/07 07:39:34;;;;;;;11.95;7.40;;;;;;;19.73;57.12;102437.97;6171208;28;20261;-60
2021/09/07 07:42:55;;;;;;;9.60;6.82;;;;;;;19.84;56.97;102441.25;6174789;28;20611;-63
2021/09/07 07:46:16;;;;;;;8.90;6.47;;;;;;;19.86;57.01;102439.44;6187130;28;20557;-62
2021/09/07 07:49:38;;;;;;;8.32;7.53;;;;;;;20.21;55.88;102435.09;6173869;28;20791;-61
2021/09/07 07:53:02;;;;;;;12.27;7.95;;;;;;;20.15;55.78;102437.03;6176560;28;20225;-62
2021/09/07 07:56:23;;;;;;;8.93;7.28;;;;;;;20.43;54.40;102440.75;6185195;28;20226;-61
2021/09/07 07:59:44;;;;;;;8.27;6.22;;;;;;;20.55;53.93;102444.88;6171524;28;20242;-60
2021/09/07 08:03:06;;;;;;;9.02;6.43;;;;;;;20.81;54.17;102443.38;6174300;28;20635;-61
2021/09/07 08:06:27;;;;;;;8.30;6.55;;;;;;;20.60;53.49;102448.28;6184268;28;20230;-61
2021/09/07 08:09:49;;;;;;;7.25;6.32;;;;;;;20.67;53.87;102442.88;6163728;28;22405;-59
2021/09/07 08:13:10;;;;;;;9.00;6.95;;;;;;;20.21;52.69;102443.03;6165275;28;20241;-60
2021/09/07 08:16:31;;;;;;;7.78;5.53;;;;;;;20.39;53.68;102454.94;6184121;28;20238;-59
2021/09/07 08:19:52;;;;;;;7.80;5.65;;;;;;;20.86;52.99;102457.38;6148364;28;20229;-60
2021/09/07 08:23:13;;;;;;;6.13;5.53;;;;;;;20.64;52.17;102463.19;6160729;28;20238;-62
2021/09/07 08:26:36;;;;;;;6.28;5.68;;;;;;;20.75;53.84;102464.72;6183670;28;20234;-61
2021/09/07 08:29:56;;;;;;;8.23;5.88;;;;;;;20.91;53.85;102463.38;6172725;28;20344;-59
2021/09/07 08:33:18;;;;;;;8.15;5.03;;;;;;;21.08;52.26;102462.09;6170705;28;20241;-60
2021/09/07 08:36:39;;;;;;;7.65;6.32;;;;;;;21.00;52.94;102470.25;6179469;28;20229;-61
2021/09/07 08:40:00;;;;;;;7.55;5.45;;;;;;;21.03;51.95;102471.03;6169189;28;20610;-60
2021/09/07 08:43:22;;;;;;;7.80;5.75;;;;;;;21.30;51.94;102465.00;6167922;28;20241;-60
2021/09/07 08:46:43;;;;;;;5.13;4.63;;;;;;;21.55;51.08;102459.91;6179251;28;20265;-62
2021/09/07 08:50:05;;;;;;;11.80;7.93;;;;;;;21.30;50.71;102460.56;6150126;28;20234;-60
2021/09/07 08:53:27;;;;;;;7.05;5.55;;;;;;;21.14;50.59;102459.25;6174882;28;20234;-46
2021/09/07 08:56:48;;;;;;;10.98;6.07;;;;;;;21.30;48.55;102460.56;6186350;28;20225;-50
2021/09/07 09:00:12;;;;;;;9.07;5.88;;;;;;;21.58;48.04;102457.19;6182741;28;20233;-52
2021/09/07 09:03:32;;;;;;;5.13;4.60;;;;;;;21.83;47.23;102466.13;6179049;28;20245;-49
2021/09/07 09:06:54;;;;;;;6.00;4.63;;;;;;;21.83;45.45;102460.81;6184850;28;20619;-50
2021/09/07 09:10:19;;;;;;;4.72;4.28;;;;;;;21.54;44.08;102458.16;6176018;28;20774;-48
2021/09/07 09:13:43;;;;;;;4.55;4.15;;;;;;;21.47;45.38;102460.13;6166086;28;20229;-47
2021/09/07 09:17:28;;;;;;;4.95;3.58;;;;;;;21.95;42.92;102458.72;6158048;28;20253;-49
2021/09/07 09:20:49;;;;;;;7.13;4.15;;;;;;;22.12;44.28;102450.19;6164395;28;20267;-48
2021/09/07 09:24:12;;;;;;;12.38;5.18;;;;;;;22.30;44.51;102454.97;6169938;28;20545;-49
2021/09/07 09:27:33;;;;;;;5.53;3.85;;;;;;;22.46;44.54;102442.06;6164655;28;20242;-51
2021/09/07 09:30:56;;;;;;;5.78;4.03;;;;;;;22.58;43.79;102433.66;6168650;28;20241;-51
2021/09/07 09:34:19;;;;;;;4.93;4.15;;;;;;;22.71;44.44;102433.25;6159335;28;20225;-54
2021/09/07 09:37:53;;;;;;;4.18;3.80;;;;;;;22.78;43.22;102440.09;6163698;28;20238;-51
2021/09/07 09:41:14;;;;;;;4.35;3.88;;;;;;;22.74;41.20;102446.41;6164915;28;21932;-50
2021/09/07 09:44:35;;;;;;;4.93;3.95;;;;;;;22.50;41.63;102446.34;6148868;28;20836;-47
2021/09/07 09:47:57;;;;;;;4.63;4.15;;;;;;;22.86;41.88;102438.03;6162782;28;20238;-49
2021/09/07 09:51:21;;;;;;;5.88;5.00;;;;;;;23.35;41.69;102428.31;6168480;28;20245;-46
2021/09/07 09:54:42;;;;;;;4.13;3.75;;;;;;;23.46;41.91;102442.97;6165219;28;20222;-51
2021/09/07 09:58:03;;;;;;;5.07;3.80;;;;;;;23.82;40.36;102442.53;6158245;28;20230;-51
2021/09/07 10:01:24;;;;;;;7.13;4.35;;;;;;;23.83;40.80;102436.31;6171357;28;20234;-50
2021/09/07 10:04:45;;;;;;;6.68;4.25;;;;;;;23.96;39.78;102437.53;6161572;28;20249;-51
2021/09/07 10:08:10;;;;;;;5.57;4.38;;;;;;;23.93;39.08;102432.34;6158305;28;20233;-51
2021/09/07 10:11:32;;;;;;;5.15;4.40;;;;;;;24.77;38.43;102425.31;6176211;28;20249;-50
2021/09/07 10:15:02;;;;;;;4.38;3.95;;;;;;;24.95;38.39;102428.97;6158007;28;20234;-50
2021/09/07 10:18:45;;;;;;;5.60;4.63;;;;;;;25.13;37.81;102425.50;6150208;28;20232;-51
2021/09/07 10:25:55;;;;;;;4.82;3.47;;;;;;;25.13;36.48;102427.28;6183435;28;20233;-49
2021/09/07 10:29:19;;;;;;;8.15;4.25;;;;;;;25.27;36.50;102419.56;6169169;28;20294;-46
2021/09/07 10:32:40;;;;;;;5.30;4.05;;;;;;;25.49;36.38;102418.56;6174496;28;20249;-50
2021/09/07 10:36:10;;;;;;;4.75;4.07;;;;;;;25.45;34.27;102423.16;6180053;28;20233;-49
2021/09/07 10:39:34;;;;;;;5.22;3.47;;;;;;;25.28;34.93;102421.31;6167974;28;20602;-51
2021/09/07 10:42:57;;;;;;;8.25;3.63;;;;;;;25.56;35.62;102412.00;6169198;28;20608;-50
2021/09/07 10:46:37;;;;;;;4.63;4.03;;;;;;;25.66;35.54;102415.09;6178034;28;21539;-50
2021/09/07 10:49:59;;;;;;;3.75;3.40;;;;;;;25.93;35.67;102410.28;6167396;28;20237;-51
2021/09/07 10:53:22;;;;;;;7.57;5.85;;;;;;;26.16;36.21;102403.78;6166767;28;20237;-48
2021/09/07 10:56:43;;;;;;;4.65;3.90;;;;;;;26.39;35.08;102407.13;6175739;28;20238;-45
2021/09/07 11:00:09;;;;;;;5.80;4.25;;;;;;;26.40;34.87;102409.69;6168294;28;20234;-46
2021/09/07 11:03:30;;;;;;;4.63;3.75;;;;;;;26.16;34.50;102402.94;6163671;28;20751;-51
2021/09/07 11:06:51;;;;;;;7.65;4.28;;;;;;;26.87;33.14;102394.81;6181343;28;20612;-48
2021/09/07 11:10:31;;;;;;;4.07;3.30;;;;;;;25.07;34.86;102403.59;6182015;28;20229;-49
2021/09/07 11:13:54;;;;;;;5.70;4.10;;;;;;;28.59;29.85;102397.69;6168432;28;20261;-49
2021/09/07 11:17:16;;;;;;;4.55;3.47;;;;;;;30.46;27.54;102392.84;6155723;28;20233;-48
2021/09/07 11:20:39;;;;;;;4.72;3.50;;;;;;;32.58;24.15;102400.75;6179691;28;22795;-51
2021/09/07 11:24:02;;;;;;;4.57;4.07;;;;;;;33.47;22.62;102390.09;6175788;28;20237;-48
2021/09/07 11:27:23;;;;;;;3.90;3.50;;;;;;;33.94;23.02;102380.72;6171403;28;20243;-49
2021/09/07 11:30:47;;;;;;;5.15;4.40;;;;;;;34.70;22.05;102386.00;6170107;28;20234;-51
2021/09/07 11:34:15;;;;;;;4.40;3.85;;;;;;;32.51;23.56;102386.00;6164220;28;20242;-49
2021/09/07 11:37:36;;;;;;;3.42;3.13;;;;;;;34.30;20.93;102384.03;6173161;28;20260;-52
2021/09/07 11:40:59;;;;;;;5.22;3.63;;;;;;;35.08;20.65;102376.31;6179835;28;20229;-50
2021/09/07 11:44:21;;;;;;;4.13;3.72;;;;;;;34.95;20.11;102374.84;6172157;28;20226;-50
2021/09/07 11:47:43;;;;;;;3.80;3.10;;;;;;;35.40;20.58;102369.91;6171874;28;20329;-49
2021/09/07 11:51:06;;;;;;;4.28;3.88;;;;;;;36.14;18.97;102370.31;6174297;28;20250;-53
2021/09/07 11:54:27;;;;;;;3.78;3.45;;;;;;;36.66;17.83;102376.25;6178590;28;20615;-48
2021/09/07 11:57:48;;;;;;;4.13;3.72;;;;;;;34.40;19.41;102367.03;6169157;28;20233;-47
2021/09/07 12:01:16;;;;;;;3.65;3.35;;;;;;;34.93;19.72;102358.75;6175179;28;20234;-53
2021/09/07 12:04:55;;;;;;;3.90;3.60;;;;;;;34.25;20.06;102370.03;6165898;28;20798;-53
2021/09/07 12:08:18;;;;;;;5.45;4.95;;;;;;;35.76;19.33;102362.09;6164728;28;20325;-50
2021/09/07 12:11:39;;;;;;;5.45;4.95;;;;;;;37.38;17.51;102361.06;6183827;28;20246;-52
2021/09/07 12:15:16;;;;;;;3.50;3.17;;;;;;;38.20;16.56;102366.41;6171981;28;20233;-51
2021/09/07 12:18:39;;;;;;;3.65;2.95;;;;;;;37.75;17.64;102356.50;6149921;28;20230;-45
2021/09/07 12:22:10;;;;;;;3.33;3.08;;;;;;;39.15;16.09;102361.81;6180515;28;20230;-51
2021/09/07 12:25:46;;;;;;;3.53;3.22;;;;;;;37.96;16.67;102358.88;6184851;28;20233;-52
2021/09/07 12:29:15;;;;;;;4.95;3.97;;;;;;;38.54;16.83;102358.31;6173183;28;20230;-51
2021/09/07 12:32:49;;;;;;;3.78;3.47;;;;;;;36.50;19.73;102355.16;6171984;28;20416;-48
2021/09/07 12:36:10;;;;;;;3.65;3.05;;;;;;;36.75;18.30;102355.53;6184722;28;20249;-50
2021/09/07 12:39:31;;;;;;;3.88;3.47;;;;;;;38.30;17.14;102352.69;6167882;28;20237;-49
2021/09/07 12:42:53;;;;;;;3.50;3.20;;;;;;;38.25;16.83;102346.88;6163907;28;20796;-47
2021/09/07 12:46:16;;;;;;;4.97;3.55;;;;;;;38.88;16.27;102343.81;6177901;28;20228;-51
2021/09/07 12:49:37;;;;;;;3.67;3.10;;;;;;;39.05;16.31;102346.63;6163578;28;20607;-50
2021/09/07 12:52:59;;;;;;;4.30;3.90;;;;;;;37.57;18.14;102343.75;6173022;28;20241;-48
2021/09/07 12:56:22;;;;;;;5.10;3.90;;;;;;;38.21;18.50;102343.63;6188275;28;20257;-48
2021/09/07 12:59:44;;;;;;;4.30;3.80;;;;;;;38.82;16.59;102333.59;6166716;28;20289;-51
2021/09/07 13:03:05;;;;;;;4.13;3.40;;;;;;;38.08;17.90;102340.47;6173441;28;20633;-50
2021/09/07 13:06:28;;;;;;;4.25;2.90;;;;;;;39.82;16.22;102343.69;6174876;28;20356;-50
2021/09/07 13:09:49;;;;;;;4.05;3.72;;;;;;;38.73;17.26;102337.31;6164791;28;20226;-48
2021/09/07 13:13:10;;;;;;;3.53;3.30;;;;;;;38.88;16.72;102332.94;6169483;28;20534;-47
2021/09/07 13:16:32;;;;;;;4.88;3.35;;;;;;;38.74;16.99;102326.25;6179121;28;20225;-53
2021/09/07 13:19:53;;;;;;;4.53;4.07;;;;;;;38.70;17.12;102318.56;6164838;28;20233;-47
2021/09/07 13:23:14;;;;;;;4.35;4.05;;;;;;;38.31;18.07;102316.31;6167108;28;20234;-50
2021/09/07 13:26:36;;;;;;;5.30;4.80;;;;;;;39.28;16.50;102312.31;6182654;28;20237;-49
2021/09/07 13:29:57;;;;;;;4.68;4.28;;;;;;;39.37;16.83;102318.59;6164713;28;20234;-48
2021/09/07 13:33:19;;;;;;;4.18;3.72;;;;;;;38.13;17.02;102317.22;6166978;28;20225;-53
2021/09/07 13:36:40;;;;;;;4.25;3.85;;;;;;;32.53;22.33;102316.63;6180169;28;20238;-53
2021/09/07 13:40:01;;;;;;;4.95;4.50;;;;;;;37.03;18.66;102311.09;6177249;28;20308;-51
2021/09/07 13:43:22;;;;;;;3.53;3.22;;;;;;;38.21;17.28;102303.69;6169056;28;20311;-52
2021/09/07 13:46:43;;;;;;;4.18;3.78;;;;;;;36.89;18.44;102302.59;6179124;28;20233;-52
2021/09/07 13:50:07;;;;;;;4.70;3.55;;;;;;;36.99;19.40;102300.66;6178171;28;20245;-47
2021/09/07 13:53:29;;;;;;;6.35;4.45;;;;;;;37.83;18.85;102300.34;6170566;28;20226;-54
2021/09/07 13:56:49;;;;;;;4.82;4.03;;;;;;;38.60;16.78;102289.63;6183104;28;20229;-49
2021/09/07 14:00:11;;;;;;;4.47;4.07;;;;;;;36.72;19.61;102290.69;6184673;28;20225;-50
2021/09/07 14:03:35;;;;;;;4.57;4.18;;;;;;;36.75;19.13;102287.69;6159827;28;20846;-53
2021/09/07 14:06:57;;;;;;;4.20;3.80;;;;;;;37.41;18.48;102289.25;6177416;28;20237;-51
2021/09/07 14:10:18;;;;;;;4.35;3.95;;;;;;;37.49;19.23;102293.91;6178615;28;20312;-49
2021/09/07 14:13:39;;;;;;;3.65;3.35;;;;;;;36.64;18.46;102286.88;6159904;28;20241;-49
2021/09/07 14:17:00;;;;;;;4.43;4.03;;;;;;;36.92;20.26;102284.16;6176301;28;20340;-49
2021/09/07 14:20:22;;;;;;;5.55;3.67;;;;;;;33.94;21.83;102290.72;6175768;28;20234;-52
2021/09/07 14:23:44;;;;;;;4.38;3.78;;;;;;;33.57;21.91;102282.16;6159958;28;20229;-47
2021/09/07 14:27:05;;;;;;;5.75;3.53;;;;;;;33.08;23.40;102290.63;6163199;28;22264;-47
2021/09/07 14:30:28;;;;;;;7.25;3.33;;;;;;;33.25;24.05;102293.81;6177564;28;20880;-53
2021/09/07 14:33:49;;;;;;;5.18;4.05;;;;;;;32.40;25.33;102286.22;6170055;28;20233;-47
2021/09/07 14:37:10;;;;;;;4.25;3.83;;;;;;;31.81;25.98;102281.81;6169018;28;20627;-51
2021/09/07 14:40:33;;;;;;;4.13;3.55;;;;;;;31.76;25.68;102280.34;6171057;28;20230;-49
2021/09/07 14:43:54;;;;;;;3.72;3.38;;;;;;;32.29;26.69;102273.63;6167160;28;20252;-52
2021/09/07 14:47:15;;;;;;;10.63;4.55;;;;;;;31.86;25.46;102276.94;6169569;28;20225;-51
2021/09/07 14:50:36;;;;;;;4.07;3.70;;;;;;;30.96;26.10;102275.50;6177133;28;20241;-49
2021/09/07 14:53:57;;;;;;;5.07;4.20;;;;;;;30.45;27.94;102280.91;6169453;28;20621;-49
2021/09/07 14:57:19;;;;;;;4.63;3.88;;;;;;;30.40;27.67;102281.25;6168418;28;20312;-52
2021/09/07 15:00:40;;;;;;;4.18;3.60;;;;;;;30.33;26.71;102274.59;6175382;28;20241;-46
2021/09/07 15:04:01;;;;;;;3.35;3.15;;;;;;;30.13;28.63;102272.41;6168518;28;20218;-50
2021/09/07 15:07:22;;;;;;;4.45;3.70;;;;;;;29.58;28.38;102267.09;6168553;28;20229;-48
2021/09/07 15:10:43;;;;;;;4.07;3.53;;;;;;;29.92;28.17;102270.22;6182187;28;20238;-50
2021/09/07 15:14:08;;;;;;;4.03;3.63;;;;;;;29.95;28.88;102259.28;6174880;28;20230;-49
2021/09/07 15:17:29;;;;;;;5.47;3.58;;;;;;;29.45;29.00;102258.19;6185559;28;20233;-50
2021/09/07 15:20:50;;;;;;;4.55;3.88;;;;;;;29.40;29.90;102253.09;6188202;28;20242;-52
2021/09/07 15:24:11;;;;;;;3.80;3.50;;;;;;;29.67;30.45;102264.78;6180799;28;20346;-52
2021/09/07 15:27:35;;;;;;;4.93;4.40;;;;;;;29.59;30.31;102260.78;6183318;28;20234;-50
2021/09/07 15:30:58;;;;;;;6.57;4.72;;;;;;;30.25;29.05;102251.91;6184050;28;20316;-50
2021/09/07 15:34:19;;;;;;;6.20;5.30;;;;;;;29.65;28.97;102252.31;6178727;28;20234;-48